logo
Search for airport 
image banner adimage banner adimage banner ad
image banner ad

WMPA - Pulau Pangkor

Located in Pulau Pangkor, Malaysia

ICAO - WMPA, IATA - PKG

Data provided by Airmate  

General information

Coordinates: N4°14'41" E100°33'12"
Elevation is 42 feet MSL.
 
View others Airports in Perak

Operational data

Special qualification required
Current time UTC:
Current local time:
Weather
TAF: TAF WMPA 082300Z 0900/0924 VRB02KT 9999 FEW021 TEMPO 0900/0904 6000 TSRA FEW017CB TEMPO 0910/0914 6000 TSRA FEW017CB
View NOTAMs / SUP AIP / TFR affecting this airport [VIEW]
Communications frequencies: [VIEW]

Runways:

RWY identifierQFULength (ft)Width (ft)SurfaceLDA (ft)
0436°240298UNK
22216°240298UNK

Airport contact information

Address: Pulau Pangkor Malaysia

Satellite view of WMPA